createdAt,value
2022-07-30T00:00:07.393Z,17.15
2022-07-30T00:01:11.819Z,17.12
2022-07-30T00:02:16.135Z,17.10
2022-07-30T00:03:20.449Z,17.08
2022-07-30T00:04:24.718Z,17.06
2022-07-30T00:05:29.136Z,17.05
2022-07-30T00:06:33.498Z,17.04
2022-07-30T00:07:37.770Z,17.03
2022-07-30T00:08:42.115Z,17.02
2022-07-30T00:09:46.519Z,17.02
2022-07-30T00:10:50.889Z,17.02
2022-07-30T00:11:55.203Z,17.01
2022-07-30T00:12:59.560Z,17.01
2022-07-30T00:14:03.857Z,17.01
2022-07-30T00:15:08.200Z,17.01
2022-07-30T00:16:12.656Z,17.01
2022-07-30T00:17:16.934Z,17.02
2022-07-30T00:18:22.328Z,17.03
2022-07-30T00:19:25.561Z,17.04
2022-07-30T00:20:29.985Z,17.04
2022-07-30T00:21:38.609Z,17.05
2022-07-30T00:22:38.656Z,17.05
2022-07-30T00:24:01.355Z,17.03
2022-07-30T00:24:49.446Z,17.04
2022-07-30T00:25:53.828Z,17.05
2022-07-30T00:26:58.403Z,17.06
2022-07-30T00:28:02.452Z,17.07
2022-07-30T00:29:06.787Z,17.07
2022-07-30T00:30:11.132Z,17.08
2022-07-30T00:31:15.630Z,17.07
2022-07-30T00:32:19.843Z,17.07
2022-07-30T00:33:24.195Z,17.07
2022-07-30T00:34:28.519Z,17.07
2022-07-30T00:35:32.928Z,17.06
2022-07-30T00:36:37.566Z,17.05
2022-07-30T00:37:41.653Z,17.04
2022-07-30T00:38:45.920Z,17.02
2022-07-30T00:39:50.226Z,17.00
2022-07-30T00:40:54.537Z,16.98
2022-07-30T00:41:58.886Z,16.95
2022-07-30T00:43:03.207Z,16.91
2022-07-30T00:44:07.611Z,16.89
2022-07-30T00:45:12.009Z,16.87
2022-07-30T00:46:16.361Z,16.85
2022-07-30T00:47:20.558Z,16.82
2022-07-30T00:48:25.011Z,16.79
2022-07-30T00:49:29.306Z,16.75
2022-07-30T00:50:33.636Z,16.74
2022-07-30T00:51:38.035Z,16.71
2022-07-30T00:52:42.304Z,16.69
2022-07-30T00:53:46.690Z,16.66
2022-07-30T00:54:51.054Z,16.63
2022-07-30T00:55:55.363Z,16.61
2022-07-30T00:57:00.012Z,16.59
2022-07-30T00:58:04.012Z,16.56
2022-07-30T00:59:08.443Z,16.55
2022-07-30T01:00:12.724Z,16.53
2022-07-30T01:01:17.097Z,16.52
2022-07-30T01:02:21.415Z,16.50
2022-07-30T01:03:25.767Z,16.49
2022-07-30T01:04:30.104Z,16.47
2022-07-30T01:05:34.457Z,16.45
2022-07-30T01:06:38.811Z,16.42
2022-07-30T01:07:43.205Z,16.39
2022-07-30T01:08:47.575Z,16.36
2022-07-30T01:09:51.927Z,16.34
2022-07-30T01:10:56.174Z,16.31
2022-07-30T01:12:00.551Z,16.29
2022-07-30T01:13:04.843Z,16.27
2022-07-30T01:14:09.141Z,16.25
2022-07-30T01:15:13.559Z,16.24
2022-07-30T01:16:17.908Z,16.22
2022-07-30T01:17:22.118Z,16.21
2022-07-30T01:18:26.536Z,16.19
2022-07-30T01:19:30.870Z,16.18
2022-07-30T01:20:35.212Z,16.17
2022-07-30T01:21:39.567Z,16.17
2022-07-30T01:22:43.946Z,16.18
2022-07-30T01:23:48.212Z,16.19
2022-07-30T01:24:52.581Z,16.18
2022-07-30T01:25:56.921Z,16.18
2022-07-30T01:27:01.531Z,16.17
2022-07-30T01:28:05.577Z,16.16
2022-07-30T01:29:09.846Z,16.16
2022-07-30T01:30:14.223Z,16.15
2022-07-30T01:31:18.675Z,16.14
2022-07-30T01:32:22.927Z,16.14
2022-07-30T01:33:27.180Z,16.13
2022-07-30T01:34:31.578Z,16.12
2022-07-30T01:35:35.963Z,16.11
2022-07-30T01:36:40.236Z,16.11
2022-07-30T01:37:44.493Z,16.11
2022-07-30T01:38:48.870Z,16.12
2022-07-30T01:39:53.171Z,16.13
2022-07-30T01:40:57.441Z,16.13
2022-07-30T01:42:15.801Z,16.14
2022-07-30T01:43:18.927Z,16.16
2022-07-30T01:44:23.816Z,16.17
2022-07-30T01:45:27.594Z,16.18
2022-07-30T01:46:31.840Z,16.18
2022-07-30T01:47:36.173Z,16.19
2022-07-30T01:48:40.622Z,16.19
2022-07-30T01:49:44.827Z,16.20
2022-07-30T01:50:49.161Z,16.20
2022-07-30T01:51:53.489Z,16.20
2022-07-30T01:52:57.872Z,16.20
2022-07-30T01:54:02.152Z,16.20
2022-07-30T01:55:16.988Z,16.20
2022-07-30T01:56:11.525Z,16.19
2022-07-30T01:57:15.154Z,16.19
2022-07-30T01:58:19.534Z,16.19
2022-07-30T01:59:23.922Z,16.18
2022-07-30T02:00:28.195Z,16.19
2022-07-30T02:01:32.595Z,16.19
2022-07-30T02:02:36.883Z,16.18
2022-07-30T02:03:41.278Z,16.18
2022-07-30T02:04:45.599Z,16.18
2022-07-30T02:05:49.978Z,16.18
2022-07-30T02:06:54.333Z,16.18
2022-07-30T02:07:58.617Z,16.17
2022-07-30T02:09:02.938Z,16.17
2022-07-30T02:10:07.276Z,16.17
2022-07-30T02:11:11.606Z,16.19
2022-07-30T02:12:15.903Z,16.22
2022-07-30T02:13:20.292Z,16.23
2022-07-30T02:14:24.561Z,16.24
2022-07-30T02:15:28.831Z,16.24
2022-07-30T02:16:33.294Z,16.23
2022-07-30T02:17:39.774Z,16.22
2022-07-30T02:18:41.820Z,16.22
2022-07-30T02:19:46.158Z,16.21
2022-07-30T02:20:50.467Z,16.20
2022-07-30T02:21:54.797Z,16.19
2022-07-30T02:22:59.120Z,16.19
2022-07-30T02:24:03.443Z,16.18
2022-07-30T02:25:07.866Z,16.19
2022-07-30T02:26:12.200Z,16.19
2022-07-30T02:27:16.594Z,16.20
2022-07-30T02:28:20.952Z,16.20
2022-07-30T02:29:25.240Z,16.20
2022-07-30T02:30:29.676Z,16.20
2022-07-30T02:31:33.999Z,16.19
2022-07-30T02:32:38.347Z,16.18
2022-07-30T02:33:48.620Z,16.18
2022-07-30T02:34:47.002Z,16.18
2022-07-30T02:35:51.278Z,16.19
2022-07-30T02:36:55.718Z,16.19
2022-07-30T02:38:00.067Z,16.19
2022-07-30T02:39:04.368Z,16.18
2022-07-30T02:40:08.691Z,16.17
2022-07-30T02:41:13.012Z,16.17
2022-07-30T02:42:17.422Z,16.16
2022-07-30T02:43:21.694Z,16.15
2022-07-30T02:44:26.003Z,16.15
2022-07-30T02:45:30.321Z,16.14
2022-07-30T02:46:34.715Z,16.13
2022-07-30T02:47:39.061Z,16.12
2022-07-30T02:48:43.330Z,16.11
2022-07-30T02:49:47.649Z,16.09
2022-07-30T02:50:52.038Z,16.07
2022-07-30T02:51:56.300Z,16.06
2022-07-30T02:53:00.619Z,16.06
2022-07-30T02:54:04.926Z,16.05
2022-07-30T02:55:09.227Z,16.04
2022-07-30T02:56:13.623Z,16.04
2022-07-30T02:57:17.876Z,16.03
2022-07-30T02:58:22.275Z,16.02
2022-07-30T02:59:26.546Z,16.02
2022-07-30T03:00:31.001Z,16.00
2022-07-30T03:01:35.358Z,15.98
2022-07-30T03:02:39.677Z,15.97
2022-07-30T03:03:43.940Z,15.96
2022-07-30T03:04:49.152Z,15.95
2022-07-30T03:05:52.601Z,15.94
2022-07-30T03:06:56.874Z,15.93
2022-07-30T03:08:01.233Z,15.92
2022-07-30T03:09:05.537Z,15.91
2022-07-30T03:10:09.921Z,15.90
2022-07-30T03:11:14.299Z,15.91
2022-07-30T03:12:18.521Z,15.91
2022-07-30T03:13:22.924Z,15.91
2022-07-30T03:14:27.185Z,15.91
2022-07-30T03:15:31.516Z,15.91
2022-07-30T03:16:35.984Z,15.92
2022-07-30T03:17:40.245Z,15.92
2022-07-30T03:18:44.513Z,15.91
2022-07-30T03:19:48.892Z,15.91
2022-07-30T03:20:53.132Z,15.91
2022-07-30T03:21:57.537Z,15.93
2022-07-30T03:23:01.833Z,15.94
2022-07-30T03:24:06.154Z,15.95
2022-07-30T03:25:10.549Z,15.95
2022-07-30T03:26:14.934Z,15.94
2022-07-30T03:27:19.291Z,15.96
2022-07-30T03:28:23.635Z,15.95
2022-07-30T03:29:28.015Z,15.96
2022-07-30T03:30:32.376Z,15.95
2022-07-30T03:31:37.934Z,15.96
2022-07-30T03:32:41.076Z,15.97
2022-07-30T03:33:45.342Z,15.97
2022-07-30T03:34:49.648Z,15.97
2022-07-30T03:35:53.968Z,15.97
2022-07-30T03:36:58.754Z,15.97
2022-07-30T03:38:02.624Z,15.97
2022-07-30T03:39:06.947Z,15.98
2022-07-30T03:40:11.257Z,15.98
2022-07-30T03:41:15.553Z,15.99
2022-07-30T03:42:19.954Z,16.00
2022-07-30T03:43:33.264Z,16.00
2022-07-30T03:44:28.572Z,16.00
2022-07-30T03:45:32.999Z,15.99
2022-07-30T03:46:37.410Z,15.99
2022-07-30T03:47:41.667Z,15.99
2022-07-30T03:49:00.122Z,15.99
2022-07-30T03:50:03.153Z,16.00
2022-07-30T03:51:07.424Z,16.02
2022-07-30T03:52:11.773Z,16.04
2022-07-30T03:53:16.047Z,16.07
2022-07-30T03:54:20.360Z,16.08
2022-07-30T03:55:24.747Z,16.09
2022-07-30T03:56:29.028Z,16.09
2022-07-30T03:57:33.340Z,16.09
2022-07-30T03:58:37.746Z,16.08
2022-07-30T03:59:42.097Z,16.08
2022-07-30T04:00:46.365Z,16.09
2022-07-30T04:01:50.725Z,16.10
2022-07-30T04:02:55.075Z,16.11
2022-07-30T04:03:59.556Z,16.11
2022-07-30T04:05:03.707Z,16.11
2022-07-30T04:06:08.002Z,16.11
2022-07-30T04:07:12.339Z,16.12
2022-07-30T04:08:16.852Z,16.13
2022-07-30T04:09:20.967Z,16.14
2022-07-30T04:10:25.243Z,16.15
2022-07-30T04:11:40.599Z,16.17
2022-07-30T04:12:33.839Z,16.19
2022-07-30T04:13:38.151Z,16.20
2022-07-30T04:14:42.510Z,16.21
2022-07-30T04:16:37.423Z,16.22
2022-07-30T04:16:51.302Z,16.22
2022-07-30T04:17:55.730Z,16.23
2022-07-30T04:19:00.027Z,16.23
2022-07-30T04:20:04.263Z,16.24
2022-07-30T04:21:16.181Z,16.24
2022-07-30T04:22:12.923Z,16.24
2022-07-30T04:23:17.231Z,16.25
2022-07-30T04:24:21.524Z,16.26
2022-07-30T04:25:25.899Z,16.26
2022-07-30T04:26:30.263Z,16.27
2022-07-30T04:27:34.499Z,16.27
2022-07-30T04:28:38.931Z,16.27
2022-07-30T04:29:43.171Z,16.28
2022-07-30T04:30:47.500Z,16.28
2022-07-30T04:31:54.793Z,16.29
2022-07-30T04:32:58.158Z,16.29
2022-07-30T04:34:04.659Z,16.29
2022-07-30T04:35:06.788Z,16.31
2022-07-30T04:36:13.890Z,16.33
2022-07-30T04:37:15.411Z,16.33
2022-07-30T04:38:19.754Z,16.33
2022-07-30T04:39:24.148Z,16.32
2022-07-30T04:40:28.405Z,16.32
2022-07-30T04:41:35.426Z,16.33
2022-07-30T04:42:37.067Z,16.34
2022-07-30T04:43:41.390Z,16.35
2022-07-30T04:44:45.740Z,16.36
2022-07-30T04:45:50.087Z,16.38
2022-07-30T04:46:54.585Z,16.40
2022-07-30T04:47:58.815Z,16.44
2022-07-30T04:49:03.344Z,16.46
2022-07-30T04:50:07.614Z,16.49
2022-07-30T04:51:11.899Z,16.53
2022-07-30T04:52:16.341Z,16.55
2022-07-30T04:53:20.617Z,16.58
2022-07-30T04:54:25.051Z,16.59
2022-07-30T04:55:29.456Z,16.61
2022-07-30T04:56:33.728Z,16.63
2022-07-30T04:57:38.078Z,16.66
2022-07-30T04:58:42.394Z,16.68
2022-07-30T04:59:46.720Z,16.70
2022-07-30T05:00:51.069Z,16.73
2022-07-30T05:01:55.503Z,16.74
2022-07-30T05:02:59.723Z,16.75
2022-07-30T05:04:04.156Z,16.77
2022-07-30T05:05:08.610Z,16.78
2022-07-30T05:06:12.838Z,16.80
2022-07-30T05:07:17.231Z,16.82
2022-07-30T05:08:21.509Z,16.83
2022-07-30T05:09:25.933Z,16.85
2022-07-30T05:10:30.308Z,16.87
2022-07-30T05:11:34.686Z,16.89
2022-07-30T05:12:38.970Z,16.91
2022-07-30T05:13:46.334Z,16.94
2022-07-30T05:14:48.392Z,16.97
2022-07-30T05:15:52.185Z,17.00
2022-07-30T05:16:56.389Z,17.04
2022-07-30T05:18:00.666Z,17.07
2022-07-30T05:19:07.550Z,17.10
2022-07-30T05:20:09.427Z,17.12
2022-07-30T05:21:13.710Z,17.16
2022-07-30T05:22:18.169Z,17.20
2022-07-30T05:23:22.510Z,17.23
2022-07-30T05:24:26.808Z,17.27
2022-07-30T05:25:31.222Z,17.32
2022-07-30T05:26:35.469Z,17.36
2022-07-30T05:27:40.616Z,17.41
2022-07-30T05:28:44.239Z,17.45
2022-07-30T05:29:48.614Z,17.49
2022-07-30T05:30:52.939Z,17.54
2022-07-30T05:31:59.047Z,17.57
2022-07-30T05:33:03.793Z,17.58
2022-07-30T05:34:06.144Z,17.60
2022-07-30T05:35:10.525Z,17.62
2022-07-30T05:36:14.790Z,17.63
2022-07-30T05:37:19.212Z,17.64
2022-07-30T05:38:24.661Z,17.67
2022-07-30T05:39:27.980Z,17.68
2022-07-30T05:40:32.396Z,17.71
2022-07-30T05:41:36.753Z,17.73
2022-07-30T05:42:41.060Z,17.74
2022-07-30T05:43:45.391Z,17.75
2022-07-30T05:44:49.727Z,17.75
2022-07-30T05:45:54.208Z,17.76
2022-07-30T05:46:59.003Z,17.76
2022-07-30T05:48:02.859Z,17.78
2022-07-30T05:49:07.339Z,17.80
2022-07-30T05:50:11.710Z,17.83
2022-07-30T05:51:16.046Z,17.87
2022-07-30T05:52:20.391Z,17.90
2022-07-30T05:53:24.771Z,17.93
2022-07-30T05:54:29.039Z,17.96
2022-07-30T05:55:35.439Z,18.00
2022-07-30T05:56:37.826Z,18.04
2022-07-30T05:57:42.208Z,18.08
2022-07-30T05:58:46.580Z,18.12
2022-07-30T05:59:50.845Z,18.16
2022-07-30T06:00:55.327Z,18.20
2022-07-30T06:01:59.714Z,18.24
2022-07-30T06:03:04.029Z,18.28
2022-07-30T06:04:08.537Z,18.33
2022-07-30T06:05:12.817Z,18.38
2022-07-30T06:06:21.072Z,18.42
2022-07-30T06:07:21.441Z,18.47
2022-07-30T06:08:25.783Z,18.52
2022-07-30T06:09:32.975Z,18.55
2022-07-30T06:10:34.553Z,18.59
2022-07-30T06:11:38.894Z,18.64
2022-07-30T06:12:43.333Z,18.70
2022-07-30T06:13:47.619Z,18.76
2022-07-30T06:14:51.980Z,18.81
2022-07-30T06:15:56.391Z,18.87
2022-07-30T06:17:01.051Z,18.92
2022-07-30T06:18:05.092Z,18.96
2022-07-30T06:19:09.450Z,19.00
2022-07-30T06:20:13.828Z,19.04
2022-07-30T06:21:18.121Z,18.84
2022-07-30T06:22:25.900Z,18.74
2022-07-30T06:23:26.922Z,18.81
2022-07-30T06:24:31.358Z,18.76
2022-07-30T06:25:35.674Z,18.68
2022-07-30T06:26:40.171Z,18.86
2022-07-30T06:27:44.592Z,19.00
2022-07-30T06:28:48.999Z,18.86
2022-07-30T06:29:53.417Z,18.75
2022-07-30T06:30:57.813Z,18.85
2022-07-30T06:32:02.117Z,18.95
2022-07-30T06:33:06.523Z,19.14
2022-07-30T06:34:10.890Z,19.17
2022-07-30T06:35:15.349Z,19.28
2022-07-30T06:36:19.767Z,19.39
2022-07-30T06:37:24.087Z,19.26
2022-07-30T06:38:28.600Z,19.19
2022-07-30T06:39:56.729Z,19.18
2022-07-30T06:40:37.465Z,19.05
2022-07-30T06:41:41.938Z,19.23
2022-07-30T06:42:46.202Z,19.08
2022-07-30T06:43:50.671Z,18.91
2022-07-30T06:44:55.001Z,18.86
2022-07-30T06:45:59.473Z,18.93
2022-07-30T06:47:07.910Z,19.19
2022-07-30T06:48:08.282Z,18.98
2022-07-30T06:49:12.725Z,19.00
2022-07-30T06:50:17.126Z,18.98
2022-07-30T06:51:21.521Z,18.76
2022-07-30T06:52:25.984Z,18.82
2022-07-30T06:53:30.401Z,18.71
2022-07-30T06:54:34.698Z,18.76
2022-07-30T06:55:39.192Z,18.89
2022-07-30T06:56:43.628Z,18.99
2022-07-30T06:57:47.931Z,19.08
2022-07-30T06:58:52.350Z,19.16
2022-07-30T06:59:57.690Z,19.01
2022-07-30T07:01:01.198Z,19.06
2022-07-30T07:02:05.442Z,19.16
2022-07-30T07:03:11.652Z,19.20
2022-07-30T07:04:14.347Z,19.16
2022-07-30T07:05:18.676Z,19.21
2022-07-30T07:06:23.097Z,19.22
2022-07-30T07:07:41.299Z,19.34
2022-07-30T07:08:31.810Z,19.39
2022-07-30T07:09:36.183Z,19.43
2022-07-30T07:10:40.642Z,19.25
2022-07-30T07:11:45.044Z,19.21
2022-07-30T07:12:49.404Z,19.41
2022-07-30T07:13:53.877Z,19.48
2022-07-30T07:14:58.374Z,19.55
2022-07-30T07:16:02.676Z,19.52
2022-07-30T07:17:07.611Z,19.32
2022-07-30T07:18:11.577Z,19.29
2022-07-30T07:19:15.914Z,19.46
2022-07-30T07:20:20.343Z,19.49
2022-07-30T07:21:24.782Z,19.47
2022-07-30T07:22:29.169Z,19.75
2022-07-30T07:23:39.847Z,19.77
2022-07-30T07:24:38.123Z,19.42
2022-07-30T07:25:42.432Z,19.61
2022-07-30T07:26:46.939Z,19.64
2022-07-30T07:28:12.793Z,19.88
2022-07-30T07:28:55.730Z,19.60
2022-07-30T07:30:01.760Z,19.76
2022-07-30T07:31:04.621Z,19.84
2022-07-30T07:32:09.004Z,19.84
2022-07-30T07:33:15.483Z,20.12
2022-07-30T07:34:17.738Z,20.26
2022-07-30T07:35:22.264Z,20.22
2022-07-30T07:36:26.616Z,20.21
2022-07-30T07:37:31.111Z,20.29
2022-07-30T07:38:35.483Z,20.41
2022-07-30T07:39:42.347Z,19.99
2022-07-30T07:40:44.299Z,20.23
2022-07-30T07:41:49.523Z,20.22
2022-07-30T07:42:53.234Z,20.20
2022-07-30T07:43:57.557Z,20.44
2022-07-30T07:45:02.152Z,20.53
2022-07-30T07:46:06.717Z,20.52
2022-07-30T07:47:11.013Z,20.58
2022-07-30T07:48:15.477Z,20.17
2022-07-30T07:49:20.011Z,19.99
2022-07-30T07:50:24.408Z,20.28
2022-07-30T07:51:46.908Z,20.29
2022-07-30T07:52:33.326Z,20.43
2022-07-30T07:53:37.695Z,20.29
2022-07-30T07:54:42.203Z,19.62
2022-07-30T07:55:46.697Z,19.39
2022-07-30T07:56:51.059Z,19.32
2022-07-30T07:57:55.473Z,19.61
2022-07-30T07:58:59.867Z,19.79
2022-07-30T08:00:04.268Z,19.52
2022-07-30T08:01:08.801Z,19.27
2022-07-30T08:02:13.143Z,19.75
2022-07-30T08:03:17.521Z,19.98
2022-07-30T08:04:21.902Z,19.96
2022-07-30T08:06:01.140Z,19.67
2022-07-30T08:06:30.864Z,19.79
2022-07-30T08:07:35.318Z,19.65
2022-07-30T08:08:39.743Z,19.87
2022-07-30T08:09:45.013Z,19.48
2022-07-30T08:10:48.677Z,19.55
2022-07-30T08:11:52.961Z,19.60
2022-07-30T08:12:57.448Z,19.25
2022-07-30T08:14:01.825Z,19.27
2022-07-30T08:15:06.208Z,19.19
2022-07-30T08:16:16.627Z,19.20
2022-07-30T08:17:15.242Z,19.11
2022-07-30T08:18:19.666Z,19.31
2022-07-30T08:19:24.107Z,19.03
2022-07-30T08:20:33.245Z,18.87
2022-07-30T08:21:32.899Z,18.93
2022-07-30T08:22:37.275Z,18.85
2022-07-30T08:23:42.719Z,18.93
2022-07-30T08:24:46.180Z,18.84
2022-07-30T08:25:50.599Z,18.88
2022-07-30T08:26:55.019Z,19.16
2022-07-30T08:27:59.566Z,19.07
2022-07-30T08:29:03.984Z,19.07
2022-07-30T08:30:08.328Z,18.94
2022-07-30T08:31:12.859Z,18.97
2022-07-30T08:32:17.213Z,19.13
2022-07-30T08:33:21.714Z,19.31
2022-07-30T08:34:26.058Z,19.26
2022-07-30T08:35:30.646Z,19.15
2022-07-30T08:36:35.005Z,19.13
2022-07-30T08:37:39.501Z,19.09
2022-07-30T08:38:43.920Z,19.09
2022-07-30T08:39:48.293Z,19.23
2022-07-30T08:40:52.814Z,19.31
2022-07-30T08:41:57.291Z,19.02
2022-07-30T08:43:01.771Z,19.08
2022-07-30T08:44:11.434Z,19.28
2022-07-30T08:45:10.555Z,19.35
2022-07-30T08:46:14.945Z,19.14
2022-07-30T08:47:19.381Z,18.97
2022-07-30T08:48:23.880Z,19.10
2022-07-30T08:49:28.386Z,19.22
2022-07-30T08:50:32.692Z,19.22
2022-07-30T08:51:46.884Z,19.36
2022-07-30T08:52:49.639Z,19.38
2022-07-30T08:53:54.092Z,19.53
2022-07-30T08:54:58.584Z,19.32
2022-07-30T08:56:03.049Z,19.17
2022-07-30T08:57:07.511Z,18.88
2022-07-30T08:58:12.016Z,18.85
2022-07-30T08:59:16.470Z,18.67
2022-07-30T09:00:20.956Z,18.86
2022-07-30T09:01:25.355Z,18.81
2022-07-30T09:02:29.806Z,18.84
2022-07-30T09:03:34.127Z,18.80
2022-07-30T09:04:41.623Z,18.73
2022-07-30T09:05:45.143Z,18.55
2022-07-30T09:06:49.606Z,18.53
2022-07-30T09:07:54.113Z,18.43
2022-07-30T09:08:58.517Z,18.57
2022-07-30T09:10:03.085Z,18.74
2022-07-30T09:11:07.491Z,18.59
2022-07-30T09:12:11.972Z,18.57
2022-07-30T09:13:16.325Z,18.66
2022-07-30T09:14:20.856Z,18.58
2022-07-30T09:15:25.207Z,18.60
2022-07-30T09:16:29.751Z,18.90
2022-07-30T09:17:34.269Z,19.18
2022-07-30T09:18:38.736Z,18.94
2022-07-30T09:19:43.273Z,18.88
2022-07-30T09:20:47.806Z,19.01
2022-07-30T09:21:52.240Z,18.80
2022-07-30T09:22:56.610Z,18.96
2022-07-30T09:24:13.214Z,19.24
2022-07-30T09:25:16.810Z,19.23
2022-07-30T09:26:21.137Z,19.54
2022-07-30T09:27:25.632Z,19.43
2022-07-30T09:28:30.209Z,18.83
2022-07-30T09:29:34.592Z,18.53
2022-07-30T09:30:39.098Z,18.34
2022-07-30T09:31:43.816Z,18.40
2022-07-30T09:32:50.940Z,18.42
2022-07-30T09:33:54.572Z,18.37
2022-07-30T09:34:59.026Z,18.37
2022-07-30T09:36:03.479Z,18.32
2022-07-30T09:37:07.942Z,18.32
2022-07-30T09:38:12.437Z,18.32
2022-07-30T09:39:16.880Z,18.15
2022-07-30T09:40:21.363Z,18.21
2022-07-30T09:41:38.114Z,18.10
2022-07-30T09:42:30.310Z,18.16
2022-07-30T09:43:34.899Z,17.95
2022-07-30T09:44:39.350Z,17.78
2022-07-30T09:45:43.770Z,17.68
2022-07-30T09:46:48.395Z,17.70
2022-07-30T09:47:52.788Z,17.86
2022-07-30T09:48:57.269Z,17.75
2022-07-30T09:50:06.982Z,17.58
2022-07-30T09:51:06.127Z,17.85
2022-07-30T09:52:10.810Z,17.98
2022-07-30T09:53:15.044Z,18.21
2022-07-30T09:54:19.528Z,18.07
2022-07-30T09:55:23.987Z,18.14
2022-07-30T09:56:30.132Z,18.09
2022-07-30T09:57:32.931Z,18.08
2022-07-30T09:58:37.401Z,17.97
2022-07-30T09:59:41.903Z,17.95
2022-07-30T10:00:46.416Z,17.93
2022-07-30T10:02:00.815Z,17.64
2022-07-30T10:02:55.356Z,17.70
2022-07-30T10:03:59.846Z,17.90
2022-07-30T10:05:04.385Z,18.06
2022-07-30T10:06:08.879Z,18.05
2022-07-30T10:07:13.282Z,17.92
2022-07-30T10:08:18.931Z,17.83
2022-07-30T10:09:22.209Z,17.65
2022-07-30T10:10:26.666Z,17.76
2022-07-30T10:11:31.422Z,17.73
2022-07-30T10:12:35.656Z,17.84
2022-07-30T10:13:45.702Z,17.73
2022-07-30T10:14:46.725Z,17.73
2022-07-30T10:15:51.278Z,17.88
2022-07-30T10:16:55.705Z,17.83
2022-07-30T10:18:00.213Z,17.98
2022-07-30T10:19:04.616Z,18.04
2022-07-30T10:20:09.214Z,18.22
2022-07-30T10:21:13.602Z,18.13
2022-07-30T10:22:18.045Z,18.03
2022-07-30T10:23:24.291Z,18.07
2022-07-30T10:24:46.592Z,18.26
2022-07-30T10:25:31.518Z,18.35
2022-07-30T10:26:35.961Z,18.38
2022-07-30T10:27:40.432Z,18.49
2022-07-30T10:28:44.884Z,18.42
2022-07-30T10:29:49.348Z,18.39
2022-07-30T10:30:53.848Z,18.45
2022-07-30T10:31:58.410Z,18.15
2022-07-30T10:33:02.851Z,18.04
2022-07-30T10:34:07.476Z,17.87
2022-07-30T10:35:11.825Z,17.97
2022-07-30T10:36:16.411Z,17.82
2022-07-30T10:37:20.919Z,17.92
2022-07-30T10:38:25.352Z,17.96
2022-07-30T10:39:29.855Z,18.14
2022-07-30T10:40:34.316Z,18.35
2022-07-30T10:41:44.510Z,18.40
2022-07-30T10:42:43.286Z,18.40
2022-07-30T10:43:47.753Z,18.58
2022-07-30T10:44:52.234Z,18.60
2022-07-30T10:45:56.699Z,18.80
2022-07-30T10:47:07.014Z,18.91
2022-07-30T10:48:05.727Z,18.67
2022-07-30T10:49:12.609Z,18.95
2022-07-30T10:50:15.710Z,18.74
2022-07-30T10:51:25.491Z,18.38
2022-07-30T10:52:23.702Z,18.26
2022-07-30T10:53:28.614Z,17.94
2022-07-30T10:54:32.560Z,18.05
2022-07-30T10:55:39.216Z,17.88
2022-07-30T10:56:41.499Z,17.90
2022-07-30T10:57:46.093Z,18.02
2022-07-30T10:59:04.547Z,17.98
2022-07-30T11:00:07.937Z,17.60
2022-07-30T11:01:18.015Z,17.58
2022-07-30T11:02:17.727Z,17.95
2022-07-30T11:03:22.080Z,17.93
2022-07-30T11:04:29.508Z,17.92
2022-07-30T11:05:44.999Z,17.95
2022-07-30T11:06:36.800Z,17.65
2022-07-30T11:07:41.360Z,17.57
2022-07-30T11:08:48.128Z,17.16
2022-07-30T11:10:05.097Z,17.39
2022-07-30T11:10:54.803Z,17.64
2022-07-30T11:12:05.729Z,17.63
2022-07-30T11:13:03.772Z,17.65
2022-07-30T11:14:08.259Z,17.87
2022-07-30T11:15:18.695Z,17.84
2022-07-30T11:16:17.195Z,17.60
2022-07-30T11:17:21.671Z,17.12
2022-07-30T11:18:26.186Z,17.19
2022-07-30T11:19:55.085Z,17.04
2022-07-30T11:20:35.124Z,17.20
2022-07-30T11:21:39.606Z,17.26
2022-07-30T11:22:44.077Z,17.34
2022-07-30T11:23:49.435Z,17.45
2022-07-30T11:24:53.009Z,17.84
2022-07-30T11:25:57.504Z,17.95
2022-07-30T11:27:01.977Z,17.92
2022-07-30T11:28:06.451Z,18.32
2022-07-30T11:29:10.930Z,18.21
2022-07-30T11:30:15.540Z,17.97
2022-07-30T11:31:19.968Z,17.83
2022-07-30T11:32:24.483Z,17.80
2022-07-30T11:33:32.255Z,17.72
2022-07-30T11:34:33.462Z,17.98
2022-07-30T11:35:37.969Z,17.94
2022-07-30T11:36:42.524Z,17.46
2022-07-30T11:37:52.094Z,17.64
2022-07-30T11:38:51.498Z,17.86
2022-07-30T11:39:55.939Z,17.78
2022-07-30T11:41:00.375Z,17.84
2022-07-30T11:42:05.002Z,17.90
2022-07-30T11:43:09.395Z,17.87
2022-07-30T11:44:13.880Z,17.87
2022-07-30T11:45:18.449Z,17.99
2022-07-30T11:46:29.613Z,18.19
2022-07-30T11:47:29.480Z,18.21
2022-07-30T11:48:34.038Z,17.80
2022-07-30T11:49:38.482Z,17.03
2022-07-30T11:50:42.994Z,17.36
2022-07-30T11:51:47.441Z,17.66
2022-07-30T11:52:51.931Z,17.88
2022-07-30T11:55:23.878Z,17.19
2022-07-30T11:56:28.219Z,17.70
2022-07-30T11:57:38.499Z,17.88
2022-07-30T11:58:37.099Z,18.01
2022-07-30T11:59:41.538Z,17.89
2022-07-30T12:00:45.996Z,17.76
2022-07-30T12:01:50.477Z,17.80
2022-07-30T12:02:54.973Z,17.58
2022-07-30T12:03:59.473Z,17.95
2022-07-30T12:05:03.997Z,17.74
2022-07-30T12:06:08.471Z,17.73
2022-07-30T12:07:12.988Z,18.05
2022-07-30T12:08:35.814Z,17.96
2022-07-30T12:09:35.163Z,17.66
2022-07-30T12:10:39.613Z,17.74
2022-07-30T12:11:44.067Z,18.17
2022-07-30T12:12:48.545Z,18.56
2022-07-30T12:13:53.001Z,18.85
2022-07-30T12:15:01.737Z,18.65
2022-07-30T12:16:02.030Z,18.79
2022-07-30T12:17:06.546Z,19.10
2022-07-30T12:18:25.981Z,19.25
2022-07-30T12:19:15.582Z,19.49
2022-07-30T12:20:20.077Z,19.84
2022-07-30T12:21:30.617Z,20.01
2022-07-30T12:22:33.937Z,19.71
2022-07-30T12:23:38.330Z,20.16
2022-07-30T12:24:42.877Z,19.53
2022-07-30T12:25:47.758Z,18.79
2022-07-30T12:26:51.896Z,19.06
2022-07-30T12:27:56.400Z,19.51
2022-07-30T12:29:00.910Z,19.28
2022-07-30T12:30:05.458Z,19.90
2022-07-30T12:31:09.944Z,19.42
2022-07-30T12:32:14.474Z,19.19
2022-07-30T12:33:19.009Z,19.90
2022-07-30T12:34:23.481Z,19.54
2022-07-30T12:35:28.001Z,19.43
2022-07-30T12:36:32.538Z,19.18
2022-07-30T12:37:37.037Z,19.02
2022-07-30T12:38:41.599Z,18.73
2022-07-30T12:39:46.111Z,18.57
2022-07-30T12:40:50.623Z,18.68
2022-07-30T12:41:55.122Z,18.55
2022-07-30T12:42:59.660Z,19.19
2022-07-30T12:44:04.177Z,19.16
2022-07-30T12:45:08.673Z,19.12
2022-07-30T12:46:15.007Z,19.15
2022-07-30T12:47:17.724Z,18.91
2022-07-30T12:48:22.241Z,19.07
2022-07-30T12:49:26.805Z,18.61
2022-07-30T12:50:31.306Z,18.52
2022-07-30T12:51:35.829Z,18.56
2022-07-30T12:52:40.294Z,18.56
2022-07-30T12:53:44.850Z,18.66
2022-07-30T12:54:49.401Z,18.80
2022-07-30T12:55:53.875Z,18.78
2022-07-30T12:56:58.466Z,18.63
2022-07-30T12:58:07.988Z,19.08
2022-07-30T12:59:07.460Z,19.17
2022-07-30T13:00:11.967Z,19.18
2022-07-30T13:01:16.587Z,19.56
2022-07-30T13:02:20.975Z,19.04
2022-07-30T13:03:25.505Z,18.89
2022-07-30T13:04:30.004Z,18.84
2022-07-30T13:05:34.512Z,18.86
2022-07-30T13:06:39.026Z,19.31
2022-07-30T13:07:43.549Z,19.02
2022-07-30T13:08:48.026Z,18.91
2022-07-30T13:09:52.549Z,18.80
2022-07-30T13:10:57.041Z,18.39
2022-07-30T13:12:15.591Z,18.16
2022-07-30T13:13:19.080Z,18.46
2022-07-30T13:14:26.582Z,18.67
2022-07-30T13:15:54.151Z,18.68
2022-07-30T13:16:45.480Z,18.78
2022-07-30T13:17:50.014Z,18.88
2022-07-30T13:18:54.473Z,18.70
2022-07-30T13:19:59.009Z,18.95
2022-07-30T13:21:03.493Z,19.06
2022-07-30T13:22:08.031Z,19.01
2022-07-30T13:23:12.508Z,19.04
2022-07-30T13:24:18.169Z,18.96
2022-07-30T13:25:21.476Z,18.77
2022-07-30T13:26:25.985Z,18.66
2022-07-30T13:27:30.498Z,18.41
2022-07-30T13:28:34.991Z,18.48
2022-07-30T13:29:42.504Z,18.49
2022-07-30T13:30:46.149Z,18.12
2022-07-30T13:31:50.601Z,17.91
2022-07-30T13:32:55.168Z,17.87
2022-07-30T13:33:59.678Z,18.01
2022-07-30T13:35:04.189Z,17.94
2022-07-30T13:36:08.652Z,17.98
2022-07-30T13:37:13.174Z,17.99
2022-07-30T13:38:17.760Z,17.91
2022-07-30T13:39:22.173Z,17.83
2022-07-30T13:40:26.665Z,17.76
2022-07-30T13:41:31.209Z,17.81
2022-07-30T13:42:35.693Z,18.02
2022-07-30T13:43:40.190Z,18.14
2022-07-30T13:44:44.732Z,17.87
2022-07-30T13:45:49.189Z,18.09
2022-07-30T13:46:53.663Z,18.08
2022-07-30T13:47:58.149Z,18.02
2022-07-30T13:49:02.790Z,18.02
2022-07-30T13:50:07.204Z,17.98
2022-07-30T13:51:11.691Z,17.97
2022-07-30T13:52:16.268Z,18.03